createdAt,value
2022-10-03T00:02:00.238Z,30.00
2022-10-03T00:04:50.824Z,32.00
2022-10-03T00:07:37.238Z,34.63
2022-10-03T00:10:22.032Z,33.35
2022-10-03T00:13:10.877Z,34.10
2022-10-03T00:15:49.777Z,34.47
2022-10-03T00:18:34.361Z,38.08
2022-10-03T00:21:20.379Z,39.35
2022-10-03T00:24:02.445Z,38.95
2022-10-03T00:26:44.739Z,34.75
2022-10-03T00:29:28.178Z,33.45
2022-10-03T00:32:11.488Z,36.95
2022-10-03T00:34:58.457Z,33.97
2022-10-03T00:37:36.320Z,34.97
2022-10-03T00:40:39.704Z,31.17
2022-10-03T00:43:48.625Z,34.63
2022-10-03T00:46:43.456Z,33.20
2022-10-03T00:49:53.530Z,36.72
2022-10-03T00:52:40.950Z,37.60
2022-10-03T00:55:22.021Z,32.28
2022-10-03T00:58:03.323Z,36.67
2022-10-03T01:00:35.891Z,31.52
2022-10-03T01:03:31.834Z,30.35
2022-10-03T01:06:20.821Z,40.08
2022-10-03T01:09:21.134Z,30.75
2022-10-03T01:12:06.790Z,30.15
2022-10-03T01:14:56.939Z,34.92
2022-10-03T01:17:47.946Z,28.38
2022-10-03T01:20:28.828Z,31.05
2022-10-03T01:23:30.255Z,35.17
2022-10-03T01:26:14.879Z,34.20
2022-10-03T01:29:12.488Z,41.72
2022-10-03T01:31:51.696Z,35.75
2022-10-03T01:34:27.866Z,44.38
2022-10-03T01:37:09.200Z,40.33
2022-10-03T01:39:50.833Z,42.65
2022-10-03T01:42:37.843Z,34.38
2022-10-03T01:45:22.464Z,35.67
2022-10-03T01:48:01.333Z,34.30
2022-10-03T01:50:38.469Z,33.97
2022-10-03T01:53:19.979Z,36.75
2022-10-03T01:55:59.633Z,39.60
2022-10-03T01:58:46.075Z,36.63
2022-10-03T02:01:26.069Z,34.65
2022-10-03T02:04:06.755Z,34.35
2022-10-03T02:06:45.832Z,36.33
2022-10-03T02:09:27.342Z,34.67
2022-10-03T02:12:07.153Z,32.72
2022-10-03T02:14:49.797Z,29.42
2022-10-03T02:17:30.685Z,42.58
2022-10-03T02:20:08.979Z,37.75
2022-10-03T02:22:45.893Z,44.30
2022-10-03T02:25:40.987Z,41.67
2022-10-03T02:28:48.295Z,36.45
2022-10-03T02:31:54.854Z,42.72
2022-10-03T02:35:07.189Z,40.80
2022-10-03T02:38:05.838Z,37.35
2022-10-03T02:40:57.086Z,35.50
2022-10-03T02:44:04.926Z,39.50
2022-10-03T02:47:18.557Z,39.97
2022-10-03T02:50:27.676Z,37.07
2022-10-03T02:53:33.211Z,41.05
2022-10-03T02:56:46.104Z,40.97
2022-10-03T02:59:55.895Z,38.00
2022-10-03T03:03:01.315Z,37.42
2022-10-03T03:06:18.017Z,39.22
2022-10-03T03:09:13.077Z,52.05
2022-10-03T03:12:12.022Z,46.97
2022-10-03T03:15:19.720Z,45.85
2022-10-03T03:18:00.134Z,46.05
2022-10-03T03:20:52.281Z,47.90
2022-10-03T03:24:02.423Z,44.67
2022-10-03T03:26:59.953Z,45.00
2022-10-03T03:29:42.837Z,45.28
2022-10-03T03:32:29.541Z,44.78
2022-10-03T03:35:11.553Z,54.08
2022-10-03T03:37:52.291Z,48.80
2022-10-03T03:40:39.400Z,48.00
2022-10-03T03:43:22.117Z,57.83
2022-10-03T03:46:06.648Z,58.05
2022-10-03T03:49:01.670Z,60.28
2022-10-03T03:51:42.457Z,58.53
2022-10-03T03:54:58.495Z,50.85
2022-10-03T03:58:09.336Z,49.30
2022-10-03T04:01:11.802Z,56.67
2022-10-03T04:03:56.741Z,58.17
2022-10-03T04:06:39.272Z,53.97
2022-10-03T04:09:43.665Z,61.75
2022-10-03T04:12:26.366Z,61.47
2022-10-03T04:15:25.678Z,66.60
2022-10-03T04:18:34.001Z,72.93
2022-10-03T04:21:20.939Z,60.20
2022-10-03T04:24:27.825Z,70.35
2022-10-03T04:27:14.154Z,68.10
2022-10-03T04:29:55.901Z,54.28
2022-10-03T04:32:49.995Z,51.47
2022-10-03T04:35:49.161Z,63.17
2022-10-03T04:38:36.772Z,57.05
2022-10-03T04:41:23.417Z,65.38
2022-10-03T04:44:07.942Z,67.13
2022-10-03T04:46:48.211Z,50.40
2022-10-03T04:49:26.849Z,61.50
2022-10-03T04:52:02.598Z,52.65
2022-10-03T04:54:48.301Z,55.83
2022-10-03T04:57:27.907Z,62.30
2022-10-03T05:00:14.477Z,68.55
2022-10-03T05:02:54.048Z,66.45
2022-10-03T05:05:51.485Z,61.90
2022-10-03T05:08:32.948Z,61.47
2022-10-03T05:11:15.520Z,57.75
2022-10-03T05:14:02.178Z,54.80
2022-10-03T05:16:42.929Z,53.08
2022-10-03T05:19:53.849Z,61.28
2022-10-03T05:22:40.695Z,48.83
2022-10-03T05:25:22.494Z,58.13
2022-10-03T05:28:06.123Z,57.25
2022-10-03T05:33:22.942Z,44.05
2022-10-03T05:36:16.051Z,45.25
2022-10-03T05:39:02.840Z,46.77
2022-10-03T05:41:36.416Z,47.38
2022-10-03T05:44:16.131Z,48.72
2022-10-03T05:46:58.883Z,50.50
2022-10-03T05:49:57.765Z,47.43
2022-10-03T05:52:52.911Z,42.42
2022-10-03T05:55:36.968Z,44.22
2022-10-03T05:58:57.202Z,44.92
2022-10-03T06:01:57.763Z,39.63
2022-10-03T06:04:58.991Z,35.45
2022-10-03T06:07:40.154Z,35.65
2022-10-03T06:10:43.938Z,45.45
2022-10-03T06:13:22.508Z,38.58
2022-10-03T06:15:59.609Z,37.35
2022-10-03T06:18:53.474Z,39.70
2022-10-03T06:21:49.872Z,42.53
2022-10-03T06:24:59.886Z,34.83
2022-10-03T06:28:21.537Z,37.90
2022-10-03T06:31:20.052Z,40.42
2022-10-03T06:34:13.137Z,37.92
2022-10-03T06:37:02.081Z,43.30
2022-10-03T06:40:12.466Z,25.45
2022-10-03T06:43:16.221Z,34.42
2022-10-03T06:46:35.085Z,38.90
2022-10-03T06:49:58.171Z,35.58
2022-10-03T06:52:53.445Z,31.50
2022-10-03T06:55:53.611Z,30.40
2022-10-03T06:58:54.042Z,41.95
2022-10-03T07:01:55.011Z,35.38
2022-10-03T07:04:51.148Z,31.98
2022-10-03T07:08:02.235Z,40.15
2022-10-03T07:10:50.257Z,41.08
2022-10-03T07:14:10.785Z,37.00
2022-10-03T07:17:11.440Z,35.45
2022-10-03T07:20:12.288Z,31.85
2022-10-03T07:23:29.257Z,38.95
2022-10-03T07:26:39.861Z,32.40
2022-10-03T07:29:41.307Z,42.10
2022-10-03T07:32:54.589Z,35.88
2022-10-03T07:36:12.282Z,47.58
2022-10-03T07:39:16.568Z,44.08
2022-10-03T07:45:05.268Z,37.25
2022-10-03T07:48:00.054Z,41.50
2022-10-03T07:51:06.084Z,41.00
2022-10-03T07:54:16.594Z,30.38
2022-10-03T07:57:09.709Z,30.35
2022-10-03T08:00:22.551Z,27.20
2022-10-03T08:03:25.766Z,25.45
2022-10-03T08:06:15.825Z,33.78
2022-10-03T08:09:23.302Z,27.15
2022-10-03T08:12:27.977Z,25.15
2022-10-03T08:15:09.516Z,25.20
2022-10-03T08:18:20.200Z,23.90
2022-10-03T08:20:55.256Z,26.95
2022-10-03T08:24:03.275Z,26.45
2022-10-03T08:26:52.511Z,23.50
2022-10-03T08:29:37.030Z,20.30
2022-10-03T08:32:51.915Z,27.63
2022-10-03T08:36:05.704Z,23.83
2022-10-03T08:44:13.465Z,23.25
2022-10-03T08:47:08.853Z,24.08
2022-10-03T08:50:06.017Z,23.55
2022-10-03T08:52:58.567Z,21.83
2022-10-03T08:55:45.542Z,24.58
2022-10-03T08:58:49.613Z,21.15
2022-10-03T09:55:25.224Z,21.42
2022-10-03T09:58:21.662Z,21.88
2022-10-03T10:01:19.896Z,20.25
2022-10-03T10:15:46.107Z,15.38
2022-10-03T10:18:47.816Z,18.15
2022-10-03T10:21:42.537Z,14.48
2022-10-03T10:24:40.625Z,19.38
2022-10-03T10:27:55.204Z,14.48
2022-10-03T10:31:09.452Z,11.27
2022-10-03T10:34:24.814Z,13.35
2022-10-03T10:37:35.750Z,10.23
2022-10-03T10:40:40.246Z,19.38
2022-10-03T10:43:49.521Z,16.27
2022-10-03T10:47:01.493Z,11.15
2022-10-03T10:53:29.158Z,11.27
2022-10-03T10:56:27.281Z,10.18
2022-10-03T10:59:37.198Z,16.35
2022-10-03T11:02:47.591Z,12.43
2022-10-03T11:05:48.484Z,13.73
2022-10-03T11:08:55.041Z,11.30
2022-10-03T11:12:08.110Z,11.40
2022-10-03T11:15:25.275Z,62.50
2022-10-03T11:18:41.734Z,11.07
2022-10-03T11:21:43.848Z,11.98
2022-10-03T11:24:53.292Z,11.60
2022-10-03T11:28:02.206Z,10.63
2022-10-03T11:31:00.820Z,11.95
2022-10-03T11:34:12.759Z,13.52
2022-10-03T11:37:30.954Z,10.85
2022-10-03T11:40:22.484Z,9.65
2022-10-03T11:43:20.202Z,7.18
2022-10-03T11:45:56.128Z,11.90
2022-10-03T11:48:39.575Z,16.10
2022-10-03T11:51:18.616Z,8.98
2022-10-03T11:54:19.300Z,10.23
2022-10-03T11:57:08.268Z,10.30
2022-10-03T12:00:12.824Z,11.93
2022-10-03T12:03:09.023Z,10.30
2022-10-03T12:05:52.806Z,7.97
2022-10-03T12:08:49.184Z,8.20
2022-10-03T12:11:25.963Z,8.40
2022-10-03T12:14:23.604Z,6.05
2022-10-03T12:17:12.255Z,7.70
2022-10-03T12:19:56.652Z,7.70
2022-10-03T12:22:42.268Z,6.90
2022-10-03T12:25:20.393Z,10.32
2022-10-03T12:28:05.963Z,10.63
2022-10-03T12:30:45.182Z,6.40
2022-10-03T12:33:48.385Z,10.75
2022-10-03T12:36:25.751Z,10.13
2022-10-03T12:39:14.619Z,7.35
2022-10-03T12:42:11.233Z,8.60
2022-10-03T12:44:52.452Z,8.02
2022-10-03T12:47:54.137Z,5.95
2022-10-03T12:50:45.184Z,9.32
2022-10-03T12:53:31.513Z,7.32
2022-10-03T12:56:07.380Z,7.28
2022-10-03T12:58:54.366Z,7.30
2022-10-03T13:01:35.031Z,6.82
2022-10-03T13:04:20.619Z,10.05
2022-10-03T13:08:46.285Z,6.57
2022-10-03T13:11:39.388Z,5.32
2022-10-03T13:14:28.489Z,6.65
2022-10-03T13:17:09.646Z,5.45
2022-10-03T13:19:54.024Z,6.18
2022-10-03T13:22:35.579Z,8.20
2022-10-03T13:25:14.128Z,5.43
2022-10-03T13:27:51.793Z,7.50
2022-10-03T13:30:25.951Z,5.85
2022-10-03T13:33:01.521Z,7.30
2022-10-03T13:35:58.589Z,6.95
2022-10-03T13:39:05.214Z,6.25
2022-10-03T13:41:51.613Z,7.75
2022-10-03T13:44:33.519Z,5.47
2022-10-03T13:47:20.378Z,3.80
2022-10-03T13:49:56.864Z,5.03
2022-10-03T13:52:39.424Z,8.30
2022-10-03T13:55:20.296Z,5.95
2022-10-03T13:58:18.208Z,4.53
2022-10-03T14:01:11.311Z,7.38
2022-10-03T14:03:57.690Z,7.22
2022-10-03T14:06:37.775Z,4.63
2022-10-03T14:09:29.035Z,5.72
2022-10-03T14:12:09.744Z,7.28
2022-10-03T14:14:54.287Z,7.38
2022-10-03T14:17:32.968Z,5.13
2022-10-03T14:20:15.392Z,6.20
2022-10-03T14:23:00.834Z,8.45
2022-10-03T14:25:40.814Z,5.30
2022-10-03T14:28:20.193Z,3.72
2022-10-03T14:31:07.743Z,5.63
2022-10-03T14:33:46.799Z,5.70
2022-10-03T14:36:38.181Z,5.57
2022-10-03T14:39:32.747Z,6.13
2022-10-03T14:42:21.860Z,6.43
2022-10-03T14:44:56.429Z,5.18
2022-10-03T14:47:35.717Z,3.67
2022-10-03T14:50:16.083Z,5.72
2022-10-03T14:52:52.897Z,4.15
2022-10-03T14:55:29.955Z,5.80
2022-10-03T14:58:10.627Z,4.38
2022-10-03T15:00:45.998Z,3.45
2022-10-03T15:03:38.880Z,4.32
2022-10-03T15:06:36.630Z,3.20
2022-10-03T15:09:11.914Z,5.30
2022-10-03T15:11:48.433Z,4.72
2022-10-03T15:14:24.386Z,7.00
2022-10-03T15:16:58.763Z,4.95
2022-10-03T15:19:36.077Z,5.80
2022-10-03T15:22:20.860Z,6.03
2022-10-03T15:24:55.566Z,6.35
2022-10-03T15:27:28.343Z,5.80
2022-10-03T15:30:04.658Z,4.45
2022-10-03T15:32:42.211Z,7.50
2022-10-03T15:35:20.472Z,4.88
2022-10-03T15:37:53.601Z,5.07
2022-10-03T15:40:32.277Z,6.32
2022-10-03T15:43:33.238Z,5.63
2022-10-03T15:46:12.818Z,5.60
2022-10-03T15:48:47.585Z,5.45
2022-10-03T15:51:24.031Z,4.50
2022-10-03T15:54:00.325Z,5.93
2022-10-03T15:56:37.943Z,4.60
2022-10-03T15:59:22.706Z,6.05
2022-10-03T16:01:56.226Z,5.57
2022-10-03T16:04:33.577Z,6.05
2022-10-03T16:07:10.604Z,6.10
2022-10-03T16:09:50.640Z,6.68
2022-10-03T16:12:43.060Z,5.85
2022-10-03T16:15:21.280Z,5.28
2022-10-03T16:17:56.530Z,6.22
2022-10-03T16:20:32.410Z,4.05
2022-10-03T16:23:13.520Z,6.97
2022-10-03T16:25:50.115Z,5.03
2022-10-03T16:28:26.619Z,4.53
2022-10-03T16:31:03.152Z,6.97
2022-10-03T16:33:37.545Z,5.95
2022-10-03T16:36:16.368Z,6.78
2022-10-03T16:38:56.177Z,3.13
2022-10-03T16:41:31.726Z,4.43
2022-10-03T16:44:06.648Z,5.35
2022-10-03T16:46:42.586Z,7.18
2022-10-03T16:49:52.733Z,6.57
2022-10-03T16:52:33.348Z,4.38
2022-10-03T16:55:08.517Z,6.90
2022-10-03T16:57:44.407Z,3.35
2022-10-03T17:00:22.493Z,5.03
2022-10-03T17:02:57.014Z,5.45
2022-10-03T17:05:35.959Z,5.82
2022-10-03T17:08:36.925Z,3.53
2022-10-03T17:11:05.989Z,5.28
2022-10-03T17:13:43.599Z,7.63
2022-10-03T17:16:21.085Z,8.80
2022-10-03T17:19:08.375Z,3.83
2022-10-03T17:21:44.476Z,7.47
2022-10-03T17:24:24.935Z,215.38
2022-10-03T17:27:01.109Z,18.90
2022-10-03T17:29:36.278Z,17.17
2022-10-03T17:32:14.431Z,10.95
2022-10-03T17:34:53.820Z,8.45
2022-10-03T17:37:55.980Z,8.45
2022-10-03T17:40:45.925Z,7.53
2022-10-03T17:43:24.901Z,6.18
2022-10-03T17:46:05.334Z,8.32
2022-10-03T17:48:41.313Z,10.48
2022-10-03T17:51:44.669Z,7.00
2022-10-03T17:54:20.575Z,8.07
2022-10-03T17:56:56.733Z,9.55
2022-10-03T17:59:32.740Z,8.20
2022-10-03T18:02:20.537Z,13.38
2022-10-03T18:05:00.363Z,6.97
2022-10-03T18:07:35.652Z,7.13
2022-10-03T18:10:19.228Z,7.40
2022-10-03T18:12:54.087Z,6.35
2022-10-03T18:16:01.641Z,5.72
2022-10-03T18:19:21.666Z,5.70
2022-10-03T18:22:02.500Z,12.05
2022-10-03T18:24:53.443Z,6.15
2022-10-03T18:27:46.269Z,8.85
2022-10-03T18:30:21.641Z,6.32
2022-10-03T18:32:58.416Z,9.45
2022-10-03T18:35:35.201Z,5.97
2022-10-03T18:38:14.090Z,8.85
2022-10-03T18:40:51.252Z,7.20
2022-10-03T18:43:36.987Z,10.18
2022-10-03T18:46:18.971Z,7.00
2022-10-03T18:49:28.347Z,8.30
2022-10-03T18:51:57.977Z,6.28
2022-10-03T18:54:37.717Z,10.38
2022-10-03T18:57:19.146Z,10.48
2022-10-03T18:59:55.918Z,6.35
2022-10-03T19:02:35.660Z,5.50
2022-10-03T19:13:06.770Z,10.60
2022-10-03T19:15:52.290Z,12.73
2022-10-03T19:21:02.837Z,10.10
2022-10-03T19:23:37.350Z,12.02
2022-10-03T19:26:18.599Z,9.75
2022-10-03T19:28:54.301Z,6.82
2022-10-03T19:31:31.229Z,10.63
2022-10-03T19:34:07.415Z,15.15
2022-10-03T19:36:41.103Z,8.45
2022-10-03T19:39:15.861Z,14.10
2022-10-03T19:41:53.225Z,6.38
2022-10-03T19:44:28.530Z,7.68
2022-10-03T19:47:05.455Z,5.20
2022-10-03T19:49:47.697Z,11.50
2022-10-03T19:52:25.343Z,7.00
2022-10-03T19:55:03.044Z,11.97
2022-10-03T19:57:49.089Z,13.15
2022-10-03T20:00:29.275Z,16.58
2022-10-03T20:03:10.404Z,13.07
2022-10-03T20:05:50.468Z,20.85
2022-10-03T20:08:25.931Z,21.80
2022-10-03T20:11:06.198Z,14.77
2022-10-03T20:13:42.764Z,16.90
2022-10-03T20:16:19.063Z,21.23
2022-10-03T20:18:53.336Z,12.65
2022-10-03T20:21:28.741Z,12.73
2022-10-03T20:24:01.997Z,17.15
2022-10-03T20:26:38.418Z,13.10
2022-10-03T20:29:20.534Z,8.43
2022-10-03T20:31:59.717Z,13.32
2022-10-03T20:34:34.151Z,7.68
2022-10-03T20:37:26.372Z,8.60
2022-10-03T20:40:06.457Z,7.95
2022-10-03T20:42:43.141Z,6.97
2022-10-03T20:45:17.252Z,10.52
2022-10-03T20:47:59.794Z,11.73
2022-10-03T20:50:35.093Z,8.68
2022-10-03T20:53:16.850Z,12.18
2022-10-03T20:55:51.218Z,8.18
2022-10-03T20:58:29.541Z,7.53
2022-10-03T21:01:07.225Z,13.75
2022-10-03T21:03:51.222Z,12.25
2022-10-03T21:06:30.313Z,11.57
2022-10-03T21:09:05.475Z,9.18
2022-10-03T21:11:39.642Z,12.45
2022-10-03T21:14:18.221Z,8.80
2022-10-03T21:16:52.192Z,9.80
2022-10-03T21:19:37.743Z,11.57
2022-10-03T21:22:15.549Z,8.15
2022-10-03T21:24:55.305Z,16.67
2022-10-03T21:27:27.835Z,8.13
2022-10-03T21:30:03.333Z,10.80
2022-10-03T21:32:56.412Z,9.15
2022-10-03T21:35:32.354Z,8.20
2022-10-03T21:38:15.565Z,13.30
2022-10-03T21:41:07.898Z,7.07
2022-10-03T21:43:48.899Z,10.93
2022-10-03T21:46:32.032Z,12.27
2022-10-03T21:49:34.814Z,6.80
2022-10-03T21:52:28.984Z,13.82
2022-10-03T21:55:14.311Z,11.32
2022-10-03T21:57:56.466Z,9.25
2022-10-03T22:00:29.686Z,8.68
2022-10-03T22:03:08.737Z,10.50
2022-10-03T22:05:45.694Z,11.20
2022-10-03T22:08:24.185Z,9.57
2022-10-03T22:11:07.858Z,8.75
2022-10-03T22:16:21.278Z,7.55
2022-10-03T22:19:17.960Z,7.90
2022-10-03T22:22:03.406Z,7.13
2022-10-03T22:24:47.021Z,7.47
2022-10-03T22:27:23.263Z,6.25
2022-10-03T22:30:02.476Z,11.45
2022-10-03T22:32:40.545Z,8.38
2022-10-03T22:35:32.464Z,9.45
2022-10-03T22:38:04.977Z,6.63
2022-10-03T22:40:39.234Z,10.57
2022-10-03T22:43:13.912Z,8.55
2022-10-03T22:45:49.608Z,5.53
2022-10-03T22:48:25.329Z,4.88
2022-10-03T22:50:57.894Z,9.88
2022-10-03T22:53:35.328Z,9.17
2022-10-03T22:56:35.319Z,12.55
2022-10-03T22:59:11.523Z,9.93
2022-10-03T23:01:46.751Z,6.55
2022-10-03T23:04:28.217Z,11.43
2022-10-03T23:07:19.397Z,11.10
2022-10-03T23:10:04.552Z,8.18
2022-10-03T23:12:42.064Z,10.70
2022-10-03T23:15:17.148Z,17.40
2022-10-03T23:18:06.600Z,9.52
2022-10-03T23:20:58.443Z,10.02
2022-10-03T23:26:25.117Z,9.25
